Ambler, PA

9:50 AM EDT on August 21, 2014 (GMT -0400)
Philadelphia Wings Airport | Change Station
CLOSE
Current Station
Airport
Location: Philadelphia Wings Airport,
Elevation: 302 ft
Nearby Weather Stations

Elev 302 ft 40.14 °N, 75.27 °W | Updated 35 minutes ago

Overcast
Overcast
73 °F
Feels Like 73 °F
N
0
Wind Variable Wind from North

Today
High -- | Low -- °F
--% Chance of Precip.
Yesterday
High -- | Low -- °F
Precip. -- in
6:17 AM 7:49 PM
Waning Crescent, 14% visible
Pressure 30.06 in
Visibility 10.0 miles
Clouds Overcast 4200 ft
Dew Point 66 °F
Humidity 78%
Rainfall 0.00 in
Snow Depth Not available.
UV 1 out of 12
Pollen 9.00 out of 12
Air Quality Not available.
Flu Activity Not available.
METAR KLOM 211315Z AUTO 00000KT 10SM OVC042 23/19 A3006 RMK AO1

More Conditions Fewer Conditions

Pressure 30.06 in
Visibility 10.0 miles
Clouds Overcast 4200 ft
Dew Point 66 °F
Humidity 78%
Rainfall 0.00 in
Snow Depth Not available.
UV 1 out of 12
Pollen 9.00 out of 12
Air Quality Not available.
Flu Activity Not available.
METAR KLOM 211315Z AUTO 00000KT 10SM OVC042 23/19 A3006 RMK AO1

More Conditions Fewer Conditions

10-Day Weather Forecast

Almanac

Astronomy

Aug. 21, 2014 Rise Set
Actual Time 6:17 AM EDT 7:49 PM EDT
Civil Twilight 5:49 AM EDT 8:17 PM EDT
Nautical Twilight 5:14 AM EDT 8:52 PM EDT
Astronomical Twilight 4:38 AM EDT 9:28 PM EDT
Moon 2:46 AM EDT 5:16 PM EDT
Length of Visible Light 14h 28m
Length of Day
13h 31m
Tomorrow will be 2m 26s shorter.
Waning Crescent, 14% of the Moon is Illuminated
Today
Waning Crescent
Aug 25
New
Sep 2
First Quarter
Sep 8
Full
Sep 15
Last Quarter

Today's Extremes

State Highs State Lows

Community

WunderPhotos

Upload Photos

1,745,918 photos uploaded!

WunderBlogs® & News

Nearby

Snow Depth

Station Depth Elevation
No new snow has been reported.

Earthquake Activity

City Distance Mag. Time & Date
No recent earthquake activity has been reported nearby.
Minimum magnitude displayed is 2.5.

Coastal Water Temperatures

Place Temperature
No Stations Reporting

Nearby Weather Stations